createdAt,value
2023-03-20T00:00:46.886Z,54.10
2023-03-20T00:03:14.515Z,54.04
2023-03-20T00:05:42.768Z,53.77
2023-03-20T00:08:09.887Z,53.77
2023-03-20T00:10:41.336Z,53.69
2023-03-20T00:13:14.843Z,53.68
2023-03-20T00:15:44.616Z,53.50
2023-03-20T00:18:18.340Z,53.96
2023-03-20T00:20:47.577Z,53.68
2023-03-20T00:23:14.894Z,53.67
2023-03-20T00:25:44.598Z,53.64
2023-03-20T00:28:38.882Z,53.44
2023-03-20T00:31:18.137Z,53.34
2023-03-20T00:33:45.457Z,53.64
2023-03-20T00:36:13.722Z,53.57
2023-03-20T00:38:40.843Z,53.40
2023-03-20T00:41:23.496Z,53.60
2023-03-20T00:43:54.926Z,53.39
2023-03-20T00:46:22.539Z,53.69
2023-03-20T00:48:50.685Z,53.62
2023-03-20T00:51:19.859Z,53.47
2023-03-20T00:53:46.740Z,53.78
2023-03-20T00:56:33.858Z,53.21
2023-03-20T00:59:03.451Z,53.86
2023-03-20T01:01:32.055Z,53.29
2023-03-20T01:03:59.522Z,53.75
2023-03-20T01:06:28.836Z,53.58
2023-03-20T01:08:57.618Z,53.71
2023-03-20T01:11:24.998Z,53.74
2023-03-20T01:13:52.324Z,53.80
2023-03-20T01:16:23.268Z,53.52
2023-03-20T01:18:51.263Z,54.02
2023-03-20T01:21:18.948Z,53.63
2023-03-20T01:23:48.312Z,53.63
2023-03-20T01:26:27.347Z,53.73
2023-03-20T01:28:54.331Z,53.74
2023-03-20T01:31:21.383Z,53.63
2023-03-20T01:33:48.442Z,54.11
2023-03-20T01:36:22.108Z,54.24
2023-03-20T01:38:54.910Z,53.93
2023-03-20T01:41:25.308Z,53.92
2023-03-20T01:43:52.953Z,54.00
2023-03-20T01:46:25.187Z,53.58
2023-03-20T01:49:05.682Z,53.89
2023-03-20T01:51:33.043Z,53.78
2023-03-20T01:54:07.568Z,53.44
2023-03-20T01:56:41.686Z,53.31
2023-03-20T01:59:15.842Z,53.80
2023-03-20T02:01:44.555Z,53.51
2023-03-20T02:04:14.560Z,53.26
2023-03-20T02:06:44.851Z,53.12
2023-03-20T02:09:13.556Z,53.44
2023-03-20T02:11:44.831Z,53.40
2023-03-20T02:14:14.090Z,53.71
2023-03-20T02:16:41.619Z,53.75
2023-03-20T02:19:23.046Z,53.94
2023-03-20T02:22:37.868Z,53.95
2023-03-20T02:26:04.249Z,54.30
2023-03-20T02:29:28.564Z,54.30
2023-03-20T02:32:39.389Z,54.13
2023-03-20T02:35:50.828Z,54.60
2023-03-20T02:38:52.105Z,54.56
2023-03-20T02:41:30.183Z,54.52
2023-03-20T02:44:07.779Z,54.25
2023-03-20T02:46:48.662Z,54.40
2023-03-20T02:49:33.167Z,53.93
2023-03-20T02:52:10.612Z,54.03
2023-03-20T02:54:49.176Z,54.10
2023-03-20T02:57:27.825Z,53.84
2023-03-20T03:00:01.372Z,53.20
2023-03-20T03:02:37.456Z,53.46
2023-03-20T03:05:13.448Z,53.45
2023-03-20T03:07:45.480Z,53.53
2023-03-20T03:10:19.743Z,53.31
2023-03-20T03:12:52.450Z,53.34
2023-03-20T03:15:27.922Z,53.10
2023-03-20T03:17:58.110Z,53.05
2023-03-20T03:20:30.716Z,52.91
2023-03-20T03:22:58.910Z,52.77
2023-03-20T03:25:33.197Z,52.64
2023-03-20T03:28:07.951Z,52.82
2023-03-20T03:30:39.620Z,52.90
2023-03-20T03:33:17.994Z,52.80
2023-03-20T03:35:46.594Z,52.45
2023-03-20T03:38:29.090Z,52.52
2023-03-20T03:41:17.907Z,52.66
2023-03-20T03:43:52.949Z,52.57
2023-03-20T03:46:30.647Z,52.51
2023-03-20T03:48:59.348Z,52.66
2023-03-20T03:51:31.470Z,52.54
2023-03-20T03:54:05.816Z,52.89
2023-03-20T03:56:38.608Z,52.59
2023-03-20T03:59:12.703Z,53.05
2023-03-20T04:01:44.289Z,52.76
2023-03-20T04:04:15.861Z,52.80
2023-03-20T04:06:43.302Z,53.14
2023-03-20T04:09:10.429Z,53.02
2023-03-20T04:11:38.713Z,53.18
2023-03-20T04:14:05.692Z,53.38
2023-03-20T04:16:32.638Z,53.50
2023-03-20T04:18:59.530Z,53.55
2023-03-20T04:21:26.483Z,53.60
2023-03-20T04:23:53.376Z,53.56
2023-03-20T04:26:21.450Z,53.85
2023-03-20T04:28:50.837Z,53.97
2023-03-20T04:31:17.990Z,53.87
2023-03-20T04:33:45.323Z,54.00
2023-03-20T04:36:12.496Z,54.07
2023-03-20T04:38:39.590Z,53.99
2023-03-20T04:41:07.993Z,53.97
2023-03-20T04:43:35.028Z,54.20
2023-03-20T04:46:03.637Z,54.04
2023-03-20T04:48:30.585Z,54.14
2023-03-20T04:50:57.727Z,54.71
2023-03-20T04:53:27.094Z,54.29
2023-03-20T04:55:54.228Z,54.25
2023-03-20T04:58:21.234Z,54.50
2023-03-20T05:00:48.174Z,54.42
2023-03-20T05:03:16.408Z,54.66
2023-03-20T05:05:43.635Z,54.78
2023-03-20T05:08:11.012Z,54.67
2023-03-20T05:10:37.876Z,54.72
2023-03-20T05:13:04.768Z,54.73
2023-03-20T05:15:31.999Z,54.79
2023-03-20T05:17:58.890Z,54.78
2023-03-20T05:20:27.203Z,54.75
2023-03-20T05:22:54.093Z,54.63
2023-03-20T05:25:21.071Z,54.89
2023-03-20T05:27:48.009Z,54.82
2023-03-20T05:30:15.872Z,54.99
2023-03-20T05:32:43.676Z,54.82
2023-03-20T05:35:11.645Z,54.91
2023-03-20T05:37:39.992Z,54.83
2023-03-20T05:40:11.056Z,54.75
2023-03-20T05:42:38.196Z,54.75
2023-03-20T05:45:06.351Z,54.81
2023-03-20T05:47:33.277Z,54.91
2023-03-20T05:50:00.311Z,55.13
2023-03-20T05:52:27.258Z,55.13
2023-03-20T05:54:55.508Z,55.25
2023-03-20T05:57:22.783Z,55.36
2023-03-20T05:59:49.706Z,55.36
2023-03-20T06:02:17.214Z,55.38
2023-03-20T06:04:44.212Z,55.51
2023-03-20T06:07:11.109Z,55.13
2023-03-20T06:09:38.080Z,55.15
2023-03-20T06:12:07.228Z,55.30
2023-03-20T06:14:34.118Z,55.19
2023-03-20T06:17:01.478Z,55.33
2023-03-20T06:19:28.646Z,55.12
2023-03-20T06:21:55.649Z,55.28
2023-03-20T06:24:23.155Z,55.06
2023-03-20T06:26:50.140Z,55.34
2023-03-20T06:29:18.412Z,55.28
2023-03-20T06:31:45.525Z,54.91
2023-03-20T06:34:12.659Z,54.96
2023-03-20T06:36:39.571Z,54.60
2023-03-20T06:39:07.693Z,54.64
2023-03-20T06:41:35.242Z,54.18
2023-03-20T06:44:03.647Z,53.90
2023-03-20T06:46:31.925Z,53.83
2023-03-20T06:48:59.011Z,53.64
2023-03-20T06:51:26.080Z,53.00
2023-03-20T06:53:53.021Z,53.19
2023-03-20T06:56:20.092Z,53.17
2023-03-20T06:58:47.022Z,52.98
2023-03-20T07:01:17.782Z,52.76
2023-03-20T07:03:46.261Z,52.69
2023-03-20T07:06:13.488Z,52.66
2023-03-20T07:08:40.565Z,52.51
2023-03-20T07:11:07.898Z,52.45
2023-03-20T07:13:34.768Z,52.42
2023-03-20T07:16:05.101Z,52.17
2023-03-20T07:18:32.239Z,52.08
2023-03-20T07:21:03.928Z,51.64
2023-03-20T07:23:31.788Z,51.63
2023-03-20T07:25:59.401Z,51.85
2023-03-20T07:28:27.188Z,51.57
2023-03-20T07:30:54.478Z,51.46
2023-03-20T07:33:21.525Z,51.30
2023-03-20T07:35:53.824Z,51.52
2023-03-20T07:38:23.311Z,50.80
2023-03-20T07:40:54.103Z,50.94
2023-03-20T07:43:21.132Z,50.75
2023-03-20T07:45:48.278Z,50.58
2023-03-20T07:48:15.648Z,50.72
2023-03-20T07:50:45.749Z,50.29
2023-03-20T07:53:12.685Z,50.05
2023-03-20T07:55:41.039Z,50.02
2023-03-20T07:58:08.929Z,49.97
2023-03-20T08:00:36.648Z,49.60
2023-03-20T08:03:04.080Z,49.44
2023-03-20T08:05:31.145Z,49.53
2023-03-20T08:07:58.315Z,49.53
2023-03-20T08:10:25.542Z,49.50
2023-03-20T08:12:53.913Z,49.26
2023-03-20T08:15:20.809Z,49.38
2023-03-20T08:17:48.177Z,49.32
2023-03-20T08:20:17.145Z,49.47
2023-03-20T08:22:45.100Z,48.90
2023-03-20T08:25:12.376Z,48.69
2023-03-20T08:27:39.407Z,48.25
2023-03-20T08:30:09.959Z,48.36
2023-03-20T08:32:37.667Z,48.44
2023-03-20T08:35:05.995Z,48.27
2023-03-20T08:37:33.008Z,48.60
2023-03-20T08:40:00.306Z,48.40
2023-03-20T08:42:27.298Z,48.32
2023-03-20T08:44:54.170Z,48.17
2023-03-20T08:47:22.535Z,48.25
2023-03-20T08:49:50.192Z,47.76
2023-03-20T08:52:17.225Z,47.79
2023-03-20T08:54:44.157Z,47.52
2023-03-20T08:57:11.129Z,47.48
2023-03-20T08:59:38.266Z,46.85
2023-03-20T09:02:07.028Z,46.75
2023-03-20T09:04:35.412Z,46.77
2023-03-20T09:07:03.125Z,46.83
2023-03-20T09:09:30.456Z,46.69
2023-03-20T09:11:58.590Z,46.56
2023-03-20T09:14:28.024Z,45.82
2023-03-20T09:16:55.049Z,45.83
2023-03-20T09:19:22.063Z,45.45
2023-03-20T09:21:50.553Z,44.98
2023-03-20T09:24:17.498Z,45.12
2023-03-20T09:26:44.449Z,44.81
2023-03-20T09:29:11.424Z,44.80
2023-03-20T09:31:38.450Z,44.43
2023-03-20T09:34:05.570Z,44.24
2023-03-20T09:36:33.237Z,44.29
2023-03-20T09:39:01.762Z,43.64
2023-03-20T09:41:32.375Z,43.16
2023-03-20T09:44:13.700Z,42.96
2023-03-20T09:47:19.455Z,43.09
2023-03-20T09:50:07.926Z,43.47
2023-03-20T09:52:40.946Z,43.30
2023-03-20T09:55:16.742Z,43.00
2023-03-20T09:57:49.204Z,42.79
2023-03-20T10:00:20.976Z,43.14
2023-03-20T10:02:53.007Z,43.07
2023-03-20T10:05:25.438Z,42.65
2023-03-20T10:07:56.271Z,43.09
2023-03-20T10:10:38.331Z,42.91
2023-03-20T10:13:35.505Z,42.51
2023-03-20T10:16:17.582Z,42.64
2023-03-20T10:18:56.136Z,42.70
2023-03-20T10:21:39.747Z,42.48
2023-03-20T10:24:19.684Z,42.53
2023-03-20T10:26:55.168Z,42.46
2023-03-20T10:29:38.033Z,42.44
2023-03-20T10:32:17.394Z,42.28
2023-03-20T10:35:02.335Z,42.57
2023-03-20T10:37:51.630Z,42.41
2023-03-20T10:40:30.319Z,41.99
2023-03-20T10:43:04.014Z,41.67
2023-03-20T10:45:42.799Z,41.73
2023-03-20T10:48:20.068Z,41.59
2023-03-20T10:50:51.842Z,41.48
2023-03-20T10:53:32.070Z,41.46
2023-03-20T10:56:05.533Z,41.24
2023-03-20T10:58:39.430Z,41.08
2023-03-20T11:01:07.719Z,40.63
2023-03-20T11:03:39.569Z,40.68
2023-03-20T11:06:17.399Z,40.47
2023-03-20T11:08:51.175Z,40.53
2023-03-20T11:11:25.408Z,40.57
2023-03-20T11:13:54.498Z,40.40
2023-03-20T11:16:24.540Z,39.68
2023-03-20T11:18:53.854Z,39.83
2023-03-20T11:21:27.065Z,39.50
2023-03-20T11:23:55.881Z,38.88
2023-03-20T11:26:36.090Z,38.68
2023-03-20T11:29:07.795Z,38.41
2023-03-20T11:31:39.146Z,37.39
2023-03-20T11:34:26.593Z,37.51
2023-03-20T11:37:09.755Z,37.69
2023-03-20T11:39:38.230Z,37.02
2023-03-20T11:42:24.775Z,37.30
2023-03-20T11:45:02.073Z,37.86
2023-03-20T11:47:34.940Z,37.46
2023-03-20T11:50:05.911Z,37.63
2023-03-20T11:52:37.096Z,37.26
2023-03-20T11:55:20.266Z,37.38
2023-03-20T11:57:49.274Z,37.78
2023-03-20T12:00:21.528Z,36.98
2023-03-20T12:02:49.072Z,37.05
2023-03-20T12:05:32.860Z,36.85
2023-03-20T12:08:06.296Z,36.97
2023-03-20T12:10:42.298Z,36.45
2023-03-20T12:13:20.125Z,36.86
2023-03-20T12:15:54.305Z,36.03
2023-03-20T12:18:30.892Z,36.18
2023-03-20T12:21:10.998Z,36.12
2023-03-20T12:23:45.547Z,36.28
2023-03-20T12:26:17.655Z,36.49
2023-03-20T12:28:54.687Z,36.57
2023-03-20T12:31:29.371Z,36.58
2023-03-20T12:34:06.006Z,36.25
2023-03-20T12:36:37.164Z,36.70
2023-03-20T12:39:11.266Z,36.44
2023-03-20T12:41:49.364Z,36.98
2023-03-20T12:44:35.916Z,37.19
2023-03-20T12:47:57.146Z,37.39
2023-03-20T12:50:33.262Z,37.51
2023-03-20T12:53:22.388Z,37.64
2023-03-20T12:56:08.811Z,37.49
2023-03-20T12:58:58.338Z,37.34
2023-03-20T13:01:32.215Z,37.12
2023-03-20T13:04:26.011Z,37.04
2023-03-20T13:06:56.098Z,37.30
2023-03-20T13:10:08.799Z,37.40
2023-03-20T13:12:52.222Z,37.26
2023-03-20T13:15:40.788Z,37.17
2023-03-20T13:18:20.390Z,37.64
2023-03-20T13:20:54.174Z,37.69
2023-03-20T13:23:27.469Z,37.77
2023-03-20T13:26:21.403Z,37.73
2023-03-20T13:29:02.312Z,37.94
2023-03-20T13:31:49.067Z,37.73
2023-03-20T13:34:34.907Z,37.84
2023-03-20T13:37:23.326Z,37.95
2023-03-20T13:40:04.679Z,38.10
2023-03-20T13:42:41.610Z,38.39
2023-03-20T13:45:28.417Z,38.18
2023-03-20T13:48:00.166Z,38.69
2023-03-20T13:50:49.418Z,38.58
2023-03-20T13:53:32.246Z,38.55
2023-03-20T13:56:14.017Z,38.57
2023-03-20T13:59:03.674Z,38.30
2023-03-20T14:01:49.264Z,38.35
2023-03-20T14:04:21.026Z,38.39
2023-03-20T14:06:54.645Z,38.23
2023-03-20T14:09:32.438Z,38.43
2023-03-20T14:12:04.923Z,38.57
2023-03-20T14:14:39.628Z,38.47
2023-03-20T14:17:17.932Z,38.73
2023-03-20T14:19:48.074Z,38.86
2023-03-20T14:22:19.049Z,38.64
2023-03-20T14:24:56.024Z,38.80
2023-03-20T14:27:45.110Z,38.88
2023-03-20T14:30:39.000Z,39.22
2023-03-20T14:33:23.666Z,39.62
2023-03-20T14:36:12.169Z,39.77
2023-03-20T14:38:54.881Z,40.06
2023-03-20T14:41:35.380Z,40.12
2023-03-20T14:44:25.129Z,40.03
2023-03-20T14:47:01.739Z,40.28
2023-03-20T14:49:51.413Z,40.19
2023-03-20T14:52:48.985Z,40.85
2023-03-20T14:55:47.175Z,40.88
2023-03-20T14:58:48.895Z,41.20
2023-03-20T15:01:24.983Z,41.26
2023-03-20T15:03:59.669Z,41.56
2023-03-20T15:06:29.002Z,42.15
2023-03-20T15:09:00.810Z,42.28
2023-03-20T15:11:29.373Z,42.28
2023-03-20T15:14:00.266Z,42.41
2023-03-20T15:16:30.684Z,43.00
2023-03-20T15:18:58.603Z,43.11
2023-03-20T15:21:33.132Z,43.12
2023-03-20T15:24:01.663Z,43.37
2023-03-20T15:26:32.521Z,43.57
2023-03-20T15:29:05.410Z,43.71
2023-03-20T15:31:36.717Z,43.80
2023-03-20T15:34:08.867Z,43.64
2023-03-20T15:36:39.803Z,43.32
2023-03-20T15:39:15.415Z,43.49
2023-03-20T15:41:48.282Z,43.70
2023-03-20T15:44:22.718Z,43.61
2023-03-20T15:46:58.655Z,43.91
2023-03-20T15:49:27.204Z,43.93
2023-03-20T15:51:58.720Z,43.56
2023-03-20T15:54:27.092Z,43.84
2023-03-20T15:56:57.973Z,44.33
2023-03-20T15:59:31.586Z,44.12
2023-03-20T16:02:01.036Z,44.33
2023-03-20T16:04:28.758Z,44.42
2023-03-20T16:06:59.066Z,44.78
2023-03-20T16:09:27.327Z,44.79
2023-03-20T16:12:00.781Z,44.34
2023-03-20T16:14:33.618Z,44.42
2023-03-20T16:17:04.933Z,44.61
2023-03-20T16:19:32.004Z,44.83
2023-03-20T16:22:04.255Z,44.89
2023-03-20T16:24:38.316Z,44.75
2023-03-20T16:27:08.365Z,44.71
2023-03-20T16:29:42.626Z,44.57
2023-03-20T16:32:26.642Z,44.54
2023-03-20T16:34:57.866Z,44.54
2023-03-20T16:37:28.943Z,44.67
2023-03-20T16:40:20.349Z,44.78
2023-03-20T16:42:48.233Z,45.34
2023-03-20T16:45:29.481Z,44.89
2023-03-20T16:48:26.157Z,45.06
2023-03-20T16:51:00.199Z,45.47
2023-03-20T16:53:37.131Z,45.13
2023-03-20T16:56:10.520Z,45.05
2023-03-20T16:58:41.098Z,45.27
2023-03-20T17:01:18.292Z,45.01
2023-03-20T17:03:52.789Z,45.33
2023-03-20T17:06:38.301Z,45.91
2023-03-20T17:09:26.275Z,46.04
2023-03-20T17:12:03.173Z,46.28
2023-03-20T17:14:30.544Z,46.37
2023-03-20T17:17:00.163Z,46.80
2023-03-20T17:19:27.590Z,46.98
2023-03-20T17:21:54.607Z,47.11
2023-03-20T17:24:21.604Z,47.29
2023-03-20T17:26:55.744Z,47.61
2023-03-20T17:29:23.237Z,47.78
2023-03-20T17:32:02.338Z,47.86
2023-03-20T17:34:30.244Z,47.83
2023-03-20T17:36:59.668Z,48.46
2023-03-20T17:39:26.931Z,48.38
2023-03-20T17:41:55.283Z,48.83
2023-03-20T17:44:24.349Z,49.54
2023-03-20T17:46:58.376Z,49.53
2023-03-20T17:49:28.288Z,49.69
2023-03-20T17:51:56.424Z,50.01
2023-03-20T17:54:23.579Z,50.34
2023-03-20T17:56:50.674Z,50.29
2023-03-20T17:59:17.765Z,50.41
2023-03-20T18:01:45.284Z,50.82
2023-03-20T18:04:21.496Z,50.75
2023-03-20T18:06:50.086Z,50.86
2023-03-20T18:09:17.508Z,50.68
2023-03-20T18:11:45.308Z,51.21
2023-03-20T18:14:12.472Z,51.13
2023-03-20T18:16:39.424Z,51.47
2023-03-20T18:19:06.365Z,51.26
2023-03-20T18:21:33.446Z,51.16
2023-03-20T18:24:01.771Z,51.16
2023-03-20T18:26:29.067Z,51.33
2023-03-20T18:28:56.432Z,51.39
2023-03-20T18:31:23.461Z,52.05
2023-03-20T18:33:52.814Z,52.27
2023-03-20T18:36:22.517Z,52.22
2023-03-20T18:38:50.864Z,52.15
2023-03-20T18:41:19.735Z,52.85
2023-03-20T18:43:46.829Z,52.84
2023-03-20T18:46:16.164Z,52.82
2023-03-20T18:48:44.331Z,52.72
2023-03-20T18:51:12.209Z,52.56
2023-03-20T18:53:41.047Z,53.48
2023-03-20T18:56:13.965Z,53.26
2023-03-20T18:58:43.207Z,53.14
2023-03-20T19:01:14.815Z,53.05
2023-03-20T19:03:43.880Z,52.93
2023-03-20T19:06:15.280Z,52.73
2023-03-20T19:08:43.440Z,53.01
2023-03-20T19:11:15.173Z,53.84
2023-03-20T19:13:48.607Z,53.68
2023-03-20T19:16:24.376Z,53.58
2023-03-20T19:18:53.194Z,53.72
2023-03-20T19:21:26.331Z,53.60
2023-03-20T19:23:55.377Z,53.75
2023-03-20T19:26:25.998Z,54.06
2023-03-20T19:28:56.648Z,54.68
2023-03-20T19:31:25.492Z,54.57
2023-03-20T19:33:53.311Z,54.64
2023-03-20T19:36:27.133Z,54.71
2023-03-20T19:38:55.878Z,54.88
2023-03-20T19:41:23.351Z,54.93
2023-03-20T19:43:54.160Z,55.13
2023-03-20T19:46:42.770Z,55.77
2023-03-20T19:49:18.637Z,55.96
2023-03-20T19:51:47.053Z,56.63
2023-03-20T19:54:13.932Z,56.75
2023-03-20T19:56:40.920Z,57.07
2023-03-20T19:59:08.545Z,57.00
2023-03-20T20:01:36.850Z,57.35
2023-03-20T20:04:04.278Z,57.51
2023-03-20T20:06:32.919Z,58.18
2023-03-20T20:09:01.172Z,58.87
2023-03-20T20:11:28.917Z,58.60
2023-03-20T20:14:14.569Z,59.57
2023-03-20T20:16:45.259Z,59.50
2023-03-20T20:19:12.436Z,60.55
2023-03-20T20:22:17.098Z,60.05
2023-03-20T20:24:26.974Z,59.55
2023-03-20T20:27:14.569Z,60.25
2023-03-20T20:29:42.215Z,60.14
2023-03-20T20:32:10.625Z,60.33
2023-03-20T20:40:17.371Z,60.82
2023-03-20T20:42:51.442Z,61.60
2023-03-20T20:45:21.543Z,61.47
2023-03-20T20:47:50.789Z,61.80
2023-03-20T20:50:20.657Z,61.54
2023-03-20T20:52:48.893Z,61.65
2023-03-20T20:55:23.086Z,61.57
2023-03-20T20:57:51.515Z,61.03
2023-03-20T21:00:21.236Z,61.68
2023-03-20T21:02:49.698Z,61.56
2023-03-20T21:05:17.666Z,61.49
2023-03-20T21:07:47.915Z,61.40
2023-03-20T21:10:18.122Z,61.64
2023-03-20T21:12:58.540Z,61.48
2023-03-20T21:15:26.547Z,61.40
2023-03-20T21:18:00.952Z,62.23
2023-03-20T21:20:28.671Z,62.51
2023-03-20T21:22:55.568Z,62.30
2023-03-20T21:25:36.200Z,62.38
2023-03-20T21:28:06.531Z,62.49
2023-03-20T21:30:33.746Z,62.72
2023-03-20T21:33:03.081Z,62.75
2023-03-20T21:35:30.435Z,62.95
2023-03-20T21:38:51.142Z,62.88
2023-03-20T21:40:45.364Z,62.95
2023-03-20T21:43:13.735Z,62.78
2023-03-20T21:49:15.836Z,63.59
2023-03-20T21:52:30.453Z,63.92
2023-03-20T22:00:19.146Z,63.93
2023-03-20T22:02:28.924Z,64.17
2023-03-20T22:08:46.851Z,64.21
2023-03-20T22:11:38.542Z,64.38
2023-03-20T22:19:55.835Z,64.10
2023-03-20T22:31:05.465Z,63.74
2023-03-20T22:33:54.811Z,63.88
2023-03-20T22:36:28.006Z,63.72
2023-03-20T22:46:55.531Z,63.87
2023-03-20T22:49:22.584Z,63.87
2023-03-20T22:52:08.325Z,63.95
2023-03-20T22:54:39.683Z,63.46
2023-03-20T22:57:06.772Z,63.52
2023-03-20T22:59:33.746Z,63.79
2023-03-20T23:02:00.696Z,63.67
2023-03-20T23:04:46.353Z,64.18
2023-03-20T23:07:32.204Z,64.22
2023-03-20T23:10:00.784Z,64.19
2023-03-20T23:12:27.828Z,64.34
2023-03-20T23:14:55.040Z,64.33
2023-03-20T23:17:22.194Z,64.14
2023-03-20T23:19:56.515Z,64.21
2023-03-20T23:22:28.926Z,64.49
2023-03-20T23:24:59.903Z,64.32
2023-03-20T23:27:31.174Z,64.18
2023-03-20T23:29:58.295Z,64.20
2023-03-20T23:32:25.435Z,64.20
2023-03-20T23:34:52.333Z,64.03
2023-03-20T23:37:19.264Z,63.97
2023-03-20T23:39:46.206Z,63.95
2023-03-20T23:42:29.298Z,64.05
2023-03-20T23:45:04.289Z,63.96
2023-03-20T23:47:45.027Z,64.01
2023-03-20T23:50:20.745Z,64.05
2023-03-20T23:53:03.688Z,63.65
2023-03-20T23:55:35.686Z,63.98
2023-03-20T23:58:03.043Z,63.84
